WEATHER

Warnervale Skycam

North West View

North West View

South West View

South West View

Sydney Airport Forecast

  • YSSY TAF

    TAF YSSY 032005Z 0321/0500 22010KT CAVOK FM040200 13010KT CAVOK FM040600 05010KT CAVOK FM041200 17014KT 9999 SCT010 BKN020 FM041600 16007KT 9999 BKN020 FM042200 04010KT 9999 BKN025 RMK T 22 25 27 26 Q 1015 1014 1011 1009 TAF3

  • YSSY METAR

    METAR YSSY 032130Z 25004KT CAVOK 21/16 Q1015 RMK RF00.0/000.0 HZ

All information provided on this page is for general information and should NOT be used for flight planning.